Terminal Aerodrome Forecast
Issued by NWS

Home | Current Version | Previous Version | Text Only | Print | Product List | Glossary On
Versions: 1 2 3 4 5 6 7 8 9 10 11 12 13 14 15 16 17
232
FTUS41 KBGM 301120
TAFELM
TAF
KELM 301120Z 3012/3112 VRB04KT P6SM BKN100 OVC200
     FM301500 01007KT P6SM -SHRA OVC060
      TEMPO 3018/3021 6SM -TSRA BKN040CB OVC080
     FM310300 09004KT 5SM -SHRA BR SCT028 BKN040 OVC100
     FM310800 12009KT 2SM TSRA BR OVC018CB=

USA.gov is the U.S. government's official web portal to all federal, state and local government web resources and services.